sensor_id;sensor_type;location;lat;lon;timestamp;P1;durP1;ratioP1;P2;durP2;ratioP2
50757;SDS011;36732;47.980;11.652;2022-12-17T00:01:22;21.88;;;14.38;;
50757;SDS011;36732;47.980;11.652;2022-12-17T00:04:06;21.70;;;14.70;;
50757;SDS011;36732;47.980;11.652;2022-12-17T00:06:50;21.65;;;13.95;;
50757;SDS011;36732;47.980;11.652;2022-12-17T00:09:34;18.70;;;12.90;;
50757;SDS011;36732;47.980;11.652;2022-12-17T00:12:18;18.65;;;13.35;;
50757;SDS011;36732;47.980;11.652;2022-12-17T00:15:02;19.33;;;14.13;;
50757;SDS011;36732;47.980;11.652;2022-12-17T00:17:47;18.00;;;13.38;;
50757;SDS011;36732;47.980;11.652;2022-12-17T00:20:30;17.45;;;13.50;;
50757;SDS011;36732;47.980;11.652;2022-12-17T00:23:14;19.02;;;13.23;;
50757;SDS011;36732;47.980;11.652;2022-12-17T00:25:59;18.92;;;13.88;;
50757;SDS011;36732;47.980;11.652;2022-12-17T00:28:53;21.33;;;14.65;;
50757;SDS011;36732;47.980;11.652;2022-12-17T00:31:38;17.48;;;13.32;;
50757;SDS011;36732;47.980;11.652;2022-12-17T00:34:22;18.70;;;14.13;;
50757;SDS011;36732;47.980;11.652;2022-12-17T00:37:06;19.00;;;13.43;;
50757;SDS011;36732;47.980;11.652;2022-12-17T00:39:50;16.63;;;12.55;;
50757;SDS011;36732;47.980;11.652;2022-12-17T00:42:34;18.38;;;14.02;;
50757;SDS011;36732;47.980;11.652;2022-12-17T00:45:18;19.20;;;13.63;;
50757;SDS011;36732;47.980;11.652;2022-12-17T00:48:02;19.45;;;14.68;;
50757;SDS011;36732;47.980;11.652;2022-12-17T00:50:47;19.88;;;14.32;;
50757;SDS011;36732;47.980;11.652;2022-12-17T00:53:31;17.70;;;12.85;;
50757;SDS011;36732;47.980;11.652;2022-12-17T00:56:15;18.52;;;13.27;;
50757;SDS011;36732;47.980;11.652;2022-12-17T00:58:59;22.25;;;14.18;;
50757;SDS011;36732;47.980;11.652;2022-12-17T01:01:43;20.27;;;13.15;;
50757;SDS011;36732;47.980;11.652;2022-12-17T01:04:27;18.85;;;13.95;;
50757;SDS011;36732;47.980;11.652;2022-12-17T01:07:15;16.70;;;12.52;;
50757;SDS011;36732;47.980;11.652;2022-12-17T01:10:00;18.05;;;14.00;;
50757;SDS011;36732;47.980;11.652;2022-12-17T01:12:44;17.75;;;13.43;;
50757;SDS011;36732;47.980;11.652;2022-12-17T01:15:28;19.05;;;13.55;;
50757;SDS011;36732;47.980;11.652;2022-12-17T01:18:16;17.00;;;12.57;;
50757;SDS011;36732;47.980;11.652;2022-12-17T01:21:02;17.08;;;12.88;;
50757;SDS011;36732;47.980;11.652;2022-12-17T01:23:47;18.77;;;13.63;;
50757;SDS011;36732;47.980;11.652;2022-12-17T01:26:31;17.00;;;12.80;;
50757;SDS011;36732;47.980;11.652;2022-12-17T01:29:15;18.50;;;13.20;;
50757;SDS011;36732;47.980;11.652;2022-12-17T01:31:59;17.25;;;13.13;;
50757;SDS011;36732;47.980;11.652;2022-12-17T01:34:43;17.80;;;12.55;;
50757;SDS011;36732;47.980;11.652;2022-12-17T01:37:27;16.95;;;11.90;;
50757;SDS011;36732;47.980;11.652;2022-12-17T01:40:11;20.55;;;13.18;;
50757;SDS011;36732;47.980;11.652;2022-12-17T01:42:58;15.57;;;12.57;;
50757;SDS011;36732;47.980;11.652;2022-12-17T01:45:44;17.80;;;12.57;;
50757;SDS011;36732;47.980;11.652;2022-12-17T01:48:39;15.23;;;11.60;;
50757;SDS011;36732;47.980;11.652;2022-12-17T01:51:28;15.85;;;11.48;;
50757;SDS011;36732;47.980;11.652;2022-12-17T01:54:14;19.55;;;12.77;;
50757;SDS011;36732;47.980;11.652;2022-12-17T01:57:00;15.65;;;12.07;;
50757;SDS011;36732;47.980;11.652;2022-12-17T01:59:56;14.43;;;11.30;;
50757;SDS011;36732;47.980;11.652;2022-12-17T02:02:46;13.98;;;10.85;;
50757;SDS011;36732;47.980;11.652;2022-12-17T02:05:33;15.02;;;10.70;;
50757;SDS011;36732;47.980;11.652;2022-12-17T02:08:53;15.05;;;11.25;;
50757;SDS011;36732;47.980;11.652;2022-12-17T02:11:51;13.05;;;10.88;;
50757;SDS011;36732;47.980;11.652;2022-12-17T02:18:06;13.90;;;10.25;;
50757;SDS011;36732;47.980;11.652;2022-12-17T02:20:58;14.55;;;11.10;;
50757;SDS011;36732;47.980;11.652;2022-12-17T02:27:14;15.40;;;10.50;;
50757;SDS011;36732;47.980;11.652;2022-12-17T02:30:00;13.35;;;10.02;;
50757;SDS011;36732;47.980;11.652;2022-12-17T02:32:51;15.30;;;10.77;;
50757;SDS011;36732;47.980;11.652;2022-12-17T02:35:48;16.33;;;10.88;;
50757;SDS011;36732;47.980;11.652;2022-12-17T02:41:29;13.32;;;10.00;;
50757;SDS011;36732;47.980;11.652;2022-12-17T02:44:24;15.15;;;11.60;;
50757;SDS011;36732;47.980;11.652;2022-12-17T02:47:10;14.02;;;11.38;;
50757;SDS011;36732;47.980;11.652;2022-12-17T02:49:55;14.10;;;10.75;;
50757;SDS011;36732;47.980;11.652;2022-12-17T02:52:41;14.60;;;10.30;;
50757;SDS011;36732;47.980;11.652;2022-12-17T02:55:30;13.63;;;10.82;;
50757;SDS011;36732;47.980;11.652;2022-12-17T02:58:15;13.40;;;10.50;;
50757;SDS011;36732;47.980;11.652;2022-12-17T03:01:00;16.52;;;10.95;;
50757;SDS011;36732;47.980;11.652;2022-12-17T03:03:44;13.98;;;10.88;;
50757;SDS011;36732;47.980;11.652;2022-12-17T03:06:28;15.68;;;10.80;;
50757;SDS011;36732;47.980;11.652;2022-12-17T03:09:12;16.27;;;11.10;;
50757;SDS011;36732;47.980;11.652;2022-12-17T03:11:56;14.90;;;11.55;;
50757;SDS011;36732;47.980;11.652;2022-12-17T03:14:40;13.73;;;10.52;;
50757;SDS011;36732;47.980;11.652;2022-12-17T03:17:24;14.15;;;10.90;;
50757;SDS011;36732;47.980;11.652;2022-12-17T03:20:08;14.95;;;11.20;;
50757;SDS011;36732;47.980;11.652;2022-12-17T03:23:00;15.68;;;11.05;;
50757;SDS011;36732;47.980;11.652;2022-12-17T03:25:48;14.10;;;11.15;;
50757;SDS011;36732;47.980;11.652;2022-12-17T03:28:32;13.88;;;10.77;;
50757;SDS011;36732;47.980;11.652;2022-12-17T03:31:18;15.38;;;10.40;;
50757;SDS011;36732;47.980;11.652;2022-12-17T03:34:13;13.57;;;9.52;;
50757;SDS011;36732;47.980;11.652;2022-12-17T03:36:57;14.32;;;10.32;;
50757;SDS011;36732;47.980;11.652;2022-12-17T03:39:41;15.63;;;11.13;;
50757;SDS011;36732;47.980;11.652;2022-12-17T03:42:25;14.57;;;11.45;;
50757;SDS011;36732;47.980;11.652;2022-12-17T03:45:10;14.88;;;10.63;;
50757;SDS011;36732;47.980;11.652;2022-12-17T03:48:04;12.45;;;10.00;;
50757;SDS011;36732;47.980;11.652;2022-12-17T03:50:51;14.82;;;11.05;;
50757;SDS011;36732;47.980;11.652;2022-12-17T03:53:35;14.15;;;10.82;;
50757;SDS011;36732;47.980;11.652;2022-12-17T03:56:20;14.65;;;10.85;;
50757;SDS011;36732;47.980;11.652;2022-12-17T03:59:07;19.38;;;11.80;;
50757;SDS011;36732;47.980;11.652;2022-12-17T04:01:52;14.48;;;11.32;;
50757;SDS011;36732;47.980;11.652;2022-12-17T04:04:36;15.88;;;11.07;;
50757;SDS011;36732;47.980;11.652;2022-12-17T04:07:20;16.77;;;11.10;;
50757;SDS011;36732;47.980;11.652;2022-12-17T04:10:04;14.75;;;10.68;;
50757;SDS011;36732;47.980;11.652;2022-12-17T04:12:49;15.27;;;10.75;;
50757;SDS011;36732;47.980;11.652;2022-12-17T04:15:33;15.45;;;10.20;;
50757;SDS011;36732;47.980;11.652;2022-12-17T04:18:17;12.48;;;10.52;;
50757;SDS011;36732;47.980;11.652;2022-12-17T04:21:01;15.73;;;11.05;;
50757;SDS011;36732;47.980;11.652;2022-12-17T04:23:46;14.07;;;10.68;;
50757;SDS011;36732;47.980;11.652;2022-12-17T04:26:30;13.60;;;10.90;;
50757;SDS011;36732;47.980;11.652;2022-12-17T04:29:14;13.48;;;10.02;;
50757;SDS011;36732;47.980;11.652;2022-12-17T04:31:58;14.00;;;10.82;;
50757;SDS011;36732;47.980;11.652;2022-12-17T04:34:43;14.57;;;11.00;;
50757;SDS011;36732;47.980;11.652;2022-12-17T04:37:27;15.95;;;11.18;;
50757;SDS011;36732;47.980;11.652;2022-12-17T04:40:11;14.75;;;11.05;;
50757;SDS011;36732;47.980;11.652;2022-12-17T04:42:56;14.35;;;10.63;;
50757;SDS011;36732;47.980;11.652;2022-12-17T04:45:50;14.07;;;10.40;;
50757;SDS011;36732;47.980;11.652;2022-12-17T04:48:34;12.68;;;10.32;;
50757;SDS011;36732;47.980;11.652;2022-12-17T04:51:18;14.18;;;10.60;;
50757;SDS011;36732;47.980;11.652;2022-12-17T04:54:02;13.07;;;9.98;;
50757;SDS011;36732;47.980;11.652;2022-12-17T04:56:46;15.70;;;10.93;;
50757;SDS011;36732;47.980;11.652;2022-12-17T04:59:30;16.30;;;11.25;;
50757;SDS011;36732;47.980;11.652;2022-12-17T05:02:14;13.57;;;10.80;;
50757;SDS011;36732;47.980;11.652;2022-12-17T05:04:58;14.07;;;10.73;;
50757;SDS011;36732;47.980;11.652;2022-12-17T05:07:42;15.85;;;10.73;;
50757;SDS011;36732;47.980;11.652;2022-12-17T05:10:26;14.20;;;11.07;;
50757;SDS011;36732;47.980;11.652;2022-12-17T05:13:10;15.27;;;11.73;;
50757;SDS011;36732;47.980;11.652;2022-12-17T05:15:55;14.35;;;10.65;;
50757;SDS011;36732;47.980;11.652;2022-12-17T05:18:40;14.13;;;11.32;;
50757;SDS011;36732;47.980;11.652;2022-12-17T05:21:24;13.90;;;10.73;;
50757;SDS011;36732;47.980;11.652;2022-12-17T05:24:08;13.20;;;9.77;;
50757;SDS011;36732;47.980;11.652;2022-12-17T05:32:21;13.75;;;8.93;;
50757;SDS011;36732;47.980;11.652;2022-12-17T05:35:05;12.93;;;9.77;;
50757;SDS011;36732;47.980;11.652;2022-12-17T05:37:49;12.88;;;9.77;;
50757;SDS011;36732;47.980;11.652;2022-12-17T05:40:33;12.27;;;10.23;;
50757;SDS011;36732;47.980;11.652;2022-12-17T05:43:17;14.95;;;10.70;;
50757;SDS011;36732;47.980;11.652;2022-12-17T05:46:01;13.55;;;10.23;;
50757;SDS011;36732;47.980;11.652;2022-12-17T05:48:46;13.02;;;10.52;;
50757;SDS011;36732;47.980;11.652;2022-12-17T05:51:30;15.82;;;11.85;;
50757;SDS011;36732;47.980;11.652;2022-12-17T05:54:14;15.35;;;11.25;;
50757;SDS011;36732;47.980;11.652;2022-12-17T05:56:58;13.98;;;10.50;;
50757;SDS011;36732;47.980;11.652;2022-12-17T05:59:42;15.38;;;11.20;;
50757;SDS011;36732;47.980;11.652;2022-12-17T06:02:26;14.48;;;10.60;;
50757;SDS011;36732;47.980;11.652;2022-12-17T06:05:11;14.23;;;10.20;;
50757;SDS011;36732;47.980;11.652;2022-12-17T06:08:06;13.20;;;9.80;;
50757;SDS011;36732;47.980;11.652;2022-12-17T06:10:51;14.68;;;10.23;;
50757;SDS011;36732;47.980;11.652;2022-12-17T06:13:36;14.70;;;11.00;;
50757;SDS011;36732;47.980;11.652;2022-12-17T06:16:20;15.25;;;10.95;;
50757;SDS011;36732;47.980;11.652;2022-12-17T06:19:05;14.07;;;10.32;;
50757;SDS011;36732;47.980;11.652;2022-12-17T06:21:49;13.68;;;10.25;;
50757;SDS011;36732;47.980;11.652;2022-12-17T06:24:33;14.95;;;10.50;;
50757;SDS011;36732;47.980;11.652;2022-12-17T06:27:17;12.82;;;9.90;;
50757;SDS011;36732;47.980;11.652;2022-12-17T06:30:01;11.98;;;9.38;;
50757;SDS011;36732;47.980;11.652;2022-12-17T06:32:47;11.93;;;9.68;;
50757;SDS011;36732;47.980;11.652;2022-12-17T06:35:31;10.52;;;8.52;;
50757;SDS011;36732;47.980;11.652;2022-12-17T06:38:15;11.38;;;8.30;;
50757;SDS011;36732;47.980;11.652;2022-12-17T06:41:00;10.00;;;7.53;;
50757;SDS011;36732;47.980;11.652;2022-12-17T06:43:44;10.13;;;7.85;;
50757;SDS011;36732;47.980;11.652;2022-12-17T06:46:28;10.20;;;8.27;;
50757;SDS011;36732;47.980;11.652;2022-12-17T06:49:12;12.35;;;8.23;;
50757;SDS011;36732;47.980;11.652;2022-12-17T06:51:56;12.40;;;7.90;;
50757;SDS011;36732;47.980;11.652;2022-12-17T06:54:40;10.60;;;7.53;;
50757;SDS011;36732;47.980;11.652;2022-12-17T06:57:24;9.95;;;7.80;;
50757;SDS011;36732;47.980;11.652;2022-12-17T07:00:08;9.50;;;6.93;;
50757;SDS011;36732;47.980;11.652;2022-12-17T07:02:57;11.40;;;8.45;;
50757;SDS011;36732;47.980;11.652;2022-12-17T07:05:41;9.60;;;7.68;;
50757;SDS011;36732;47.980;11.652;2022-12-17T07:08:25;10.55;;;8.40;;
50757;SDS011;36732;47.980;11.652;2022-12-17T07:11:10;10.93;;;8.43;;
50757;SDS011;36732;47.980;11.652;2022-12-17T07:13:54;11.05;;;8.18;;
50757;SDS011;36732;47.980;11.652;2022-12-17T07:16:38;12.45;;;9.32;;
50757;SDS011;36732;47.980;11.652;2022-12-17T07:19:22;11.57;;;8.23;;
50757;SDS011;36732;47.980;11.652;2022-12-17T07:22:06;12.00;;;9.35;;
50757;SDS011;36732;47.980;11.652;2022-12-17T07:24:50;10.98;;;8.20;;
50757;SDS011;36732;47.980;11.652;2022-12-17T07:27:34;11.32;;;8.93;;
50757;SDS011;36732;47.980;11.652;2022-12-17T07:30:18;11.85;;;9.50;;
50757;SDS011;36732;47.980;11.652;2022-12-17T07:33:06;13.20;;;9.32;;
50757;SDS011;36732;47.980;11.652;2022-12-17T07:35:52;12.07;;;8.82;;
50757;SDS011;36732;47.980;11.652;2022-12-17T07:38:38;9.98;;;8.15;;
50757;SDS011;36732;47.980;11.652;2022-12-17T07:41:23;11.15;;;8.85;;
50757;SDS011;36732;47.980;11.652;2022-12-17T07:44:08;12.88;;;10.07;;
50757;SDS011;36732;47.980;11.652;2022-12-17T07:46:52;12.82;;;9.65;;
50757;SDS011;36732;47.980;11.652;2022-12-17T07:49:36;14.25;;;9.82;;
50757;SDS011;36732;47.980;11.652;2022-12-17T07:52:21;12.85;;;9.52;;
50757;SDS011;36732;47.980;11.652;2022-12-17T07:55:05;13.88;;;9.98;;
50757;SDS011;36732;47.980;11.652;2022-12-17T07:58:03;19.17;;;13.45;;
50757;SDS011;36732;47.980;11.652;2022-12-17T08:00:50;17.70;;;13.25;;
50757;SDS011;36732;47.980;11.652;2022-12-17T08:03:34;18.77;;;12.63;;
50757;SDS011;36732;47.980;11.652;2022-12-17T08:06:18;18.15;;;12.60;;
50757;SDS011;36732;47.980;11.652;2022-12-17T08:09:03;17.00;;;11.90;;
50757;SDS011;36732;47.980;11.652;2022-12-17T08:11:48;14.82;;;10.75;;
50757;SDS011;36732;47.980;11.652;2022-12-17T08:14:32;15.73;;;11.15;;
50757;SDS011;36732;47.980;11.652;2022-12-17T08:17:16;14.65;;;9.85;;
50757;SDS011;36732;47.980;11.652;2022-12-17T08:20:00;15.00;;;10.93;;
50757;SDS011;36732;47.980;11.652;2022-12-17T08:22:44;13.63;;;10.00;;
50757;SDS011;36732;47.980;11.652;2022-12-17T08:25:28;13.52;;;10.45;;
50757;SDS011;36732;47.980;11.652;2022-12-17T08:28:13;15.23;;;11.60;;
50757;SDS011;36732;47.980;11.652;2022-12-17T08:30:57;17.38;;;12.13;;
50757;SDS011;36732;47.980;11.652;2022-12-17T08:33:42;14.75;;;11.68;;
50757;SDS011;36732;47.980;11.652;2022-12-17T08:36:26;15.45;;;10.75;;
50757;SDS011;36732;47.980;11.652;2022-12-17T08:39:10;14.82;;;11.57;;
50757;SDS011;36732;47.980;11.652;2022-12-17T08:41:54;15.18;;;10.80;;
50757;SDS011;36732;47.980;11.652;2022-12-17T08:44:38;16.63;;;11.18;;
50757;SDS011;36732;47.980;11.652;2022-12-17T08:47:22;16.02;;;11.52;;
50757;SDS011;36732;47.980;11.652;2022-12-17T08:50:06;15.98;;;12.10;;
50757;SDS011;36732;47.980;11.652;2022-12-17T08:52:58;16.42;;;12.43;;
50757;SDS011;36732;47.980;11.652;2022-12-17T08:55:43;14.95;;;11.25;;
50757;SDS011;36732;47.980;11.652;2022-12-17T08:58:28;19.38;;;12.25;;
50757;SDS011;36732;47.980;11.652;2022-12-17T09:01:12;16.52;;;12.77;;
50757;SDS011;36732;47.980;11.652;2022-12-17T09:03:57;18.15;;;13.43;;
50757;SDS011;36732;47.980;11.652;2022-12-17T09:06:41;18.58;;;13.88;;
50757;SDS011;36732;47.980;11.652;2022-12-17T09:09:25;17.63;;;13.30;;
50757;SDS011;36732;47.980;11.652;2022-12-17T09:12:09;19.30;;;13.63;;
50757;SDS011;36732;47.980;11.652;2022-12-17T09:14:53;18.05;;;13.52;;
50757;SDS011;36732;47.980;11.652;2022-12-17T09:17:37;18.15;;;13.73;;
50757;SDS011;36732;47.980;11.652;2022-12-17T09:20:21;17.00;;;13.00;;
50757;SDS011;36732;47.980;11.652;2022-12-17T09:23:06;16.35;;;10.90;;
50757;SDS011;36732;47.980;11.652;2022-12-17T09:25:54;16.70;;;12.45;;
50757;SDS011;36732;47.980;11.652;2022-12-17T09:28:40;16.45;;;11.43;;
50757;SDS011;36732;47.980;11.652;2022-12-17T09:31:24;16.30;;;12.13;;
50757;SDS011;36732;47.980;11.652;2022-12-17T09:34:09;18.40;;;12.63;;
50757;SDS011;36732;47.980;11.652;2022-12-17T09:36:53;18.23;;;12.75;;
50757;SDS011;36732;47.980;11.652;2022-12-17T09:39:37;16.08;;;11.73;;
50757;SDS011;36732;47.980;11.652;2022-12-17T09:42:23;15.32;;;11.18;;
50757;SDS011;36732;47.980;11.652;2022-12-17T09:45:21;18.17;;;12.13;;
50757;SDS011;36732;47.980;11.652;2022-12-17T09:48:29;14.55;;;11.38;;
50757;SDS011;36732;47.980;11.652;2022-12-17T09:51:36;14.40;;;10.75;;
50757;SDS011;36732;47.980;11.652;2022-12-17T09:54:24;14.88;;;11.10;;
50757;SDS011;36732;47.980;11.652;2022-12-17T09:57:15;15.15;;;11.25;;
50757;SDS011;36732;47.980;11.652;2022-12-17T10:00:23;15.63;;;11.60;;
50757;SDS011;36732;47.980;11.652;2022-12-17T10:03:18;16.70;;;12.45;;
50757;SDS011;36732;47.980;11.652;2022-12-17T10:06:08;13.65;;;10.68;;
50757;SDS011;36732;47.980;11.652;2022-12-17T10:09:01;15.40;;;11.40;;
50757;SDS011;36732;47.980;11.652;2022-12-17T10:11:54;14.93;;;11.02;;
50757;SDS011;36732;47.980;11.652;2022-12-17T10:14:43;16.05;;;12.02;;
50757;SDS011;36732;47.980;11.652;2022-12-17T10:17:27;17.55;;;12.63;;
50757;SDS011;36732;47.980;11.652;2022-12-17T10:20:20;17.05;;;12.50;;
50757;SDS011;36732;47.980;11.652;2022-12-17T10:23:09;17.15;;;12.98;;
50757;SDS011;36732;47.980;11.652;2022-12-17T10:25:54;14.40;;;11.07;;
50757;SDS011;36732;47.980;11.652;2022-12-17T10:28:38;14.73;;;11.30;;
50757;SDS011;36732;47.980;11.652;2022-12-17T10:31:25;19.55;;;13.50;;
50757;SDS011;36732;47.980;11.652;2022-12-17T10:34:19;19.17;;;13.52;;
50757;SDS011;36732;47.980;11.652;2022-12-17T10:37:04;20.75;;;14.15;;
50757;SDS011;36732;47.980;11.652;2022-12-17T10:40:01;16.40;;;12.35;;
50757;SDS011;36732;47.980;11.652;2022-12-17T10:42:54;18.00;;;13.30;;
50757;SDS011;36732;47.980;11.652;2022-12-17T10:45:38;17.55;;;12.90;;
50757;SDS011;36732;47.980;11.652;2022-12-17T10:48:23;19.33;;;13.38;;
50757;SDS011;36732;47.980;11.652;2022-12-17T11:03:04;17.33;;;12.30;;
50757;SDS011;36732;47.980;11.652;2022-12-17T11:05:51;16.85;;;12.48;;
50757;SDS011;36732;47.980;11.652;2022-12-17T11:08:37;18.10;;;12.50;;
50757;SDS011;36732;47.980;11.652;2022-12-17T11:11:25;16.52;;;12.93;;
50757;SDS011;36732;47.980;11.652;2022-12-17T11:14:09;16.38;;;12.00;;
50757;SDS011;36732;47.980;11.652;2022-12-17T11:16:57;15.73;;;12.30;;
50757;SDS011;36732;47.980;11.652;2022-12-17T11:20:02;17.08;;;12.10;;
50757;SDS011;36732;47.980;11.652;2022-12-17T11:25:47;14.07;;;10.75;;
50757;SDS011;36732;47.980;11.652;2022-12-17T11:28:47;17.25;;;12.02;;
50757;SDS011;36732;47.980;11.652;2022-12-17T11:41:17;17.60;;;13.93;;
50757;SDS011;36732;47.980;11.652;2022-12-17T11:44:48;19.58;;;14.38;;
50757;SDS011;36732;47.980;11.652;2022-12-17T11:55:16;13.68;;;11.10;;
50757;SDS011;36732;47.980;11.652;2022-12-17T11:58:21;16.77;;;12.88;;
50757;SDS011;36732;47.980;11.652;2022-12-17T12:08:23;22.50;;;17.27;;
50757;SDS011;36732;47.980;11.652;2022-12-17T12:14:13;20.30;;;15.20;;
50757;SDS011;36732;47.980;11.652;2022-12-17T12:24:07;17.42;;;13.93;;
50757;SDS011;36732;47.980;11.652;2022-12-17T12:33:43;19.55;;;13.95;;
50757;SDS011;36732;47.980;11.652;2022-12-17T12:36:30;18.98;;;13.90;;
50757;SDS011;36732;47.980;11.652;2022-12-17T12:39:17;16.45;;;13.57;;
50757;SDS011;36732;47.980;11.652;2022-12-17T12:42:14;17.60;;;12.82;;
50757;SDS011;36732;47.980;11.652;2022-12-17T12:51:30;19.70;;;14.80;;
50757;SDS011;36732;47.980;11.652;2022-12-17T13:14:35;23.00;;;13.65;;
50757;SDS011;36732;47.980;11.652;2022-12-17T13:19:59;17.02;;;11.10;;
50757;SDS011;36732;47.980;11.652;2022-12-17T13:22:49;18.17;;;13.65;;
50757;SDS011;36732;47.980;11.652;2022-12-17T13:25:21;19.35;;;13.73;;
50757;SDS011;36732;47.980;11.652;2022-12-17T13:27:47;17.08;;;13.45;;
50757;SDS011;36732;47.980;11.652;2022-12-17T13:32:52;15.77;;;12.32;;
50757;SDS011;36732;47.980;11.652;2022-12-17T13:41:39;18.85;;;13.68;;
50757;SDS011;36732;47.980;11.652;2022-12-17T13:44:19;14.68;;;12.15;;
50757;SDS011;36732;47.980;11.652;2022-12-17T13:46:53;15.75;;;11.95;;
50757;SDS011;36732;47.980;11.652;2022-12-17T13:51:45;19.25;;;13.20;;
50757;SDS011;36732;47.980;11.652;2022-12-17T13:54:13;17.88;;;13.68;;
50757;SDS011;36732;47.980;11.652;2022-12-17T13:56:43;17.63;;;14.27;;
50757;SDS011;36732;47.980;11.652;2022-12-17T13:59:15;18.83;;;13.80;;
50757;SDS011;36732;47.980;11.652;2022-12-17T14:01:45;16.88;;;12.60;;
50757;SDS011;36732;47.980;11.652;2022-12-17T14:04:21;17.40;;;13.38;;
50757;SDS011;36732;47.980;11.652;2022-12-17T14:06:50;19.65;;;14.40;;
50757;SDS011;36732;47.980;11.652;2022-12-17T14:09:20;20.23;;;15.50;;
50757;SDS011;36732;47.980;11.652;2022-12-17T14:11:48;16.95;;;14.75;;
50757;SDS011;36732;47.980;11.652;2022-12-17T14:14:36;17.55;;;13.57;;
50757;SDS011;36732;47.980;11.652;2022-12-17T14:17:04;18.92;;;15.70;;
50757;SDS011;36732;47.980;11.652;2022-12-17T14:19:31;17.90;;;14.07;;
50757;SDS011;36732;47.980;11.652;2022-12-17T14:21:58;21.13;;;16.83;;
50757;SDS011;36732;47.980;11.652;2022-12-17T14:24:25;20.27;;;16.40;;
50757;SDS011;36732;47.980;11.652;2022-12-17T14:26:59;21.75;;;16.88;;
50757;SDS011;36732;47.980;11.652;2022-12-17T14:29:26;22.10;;;17.02;;
50757;SDS011;36732;47.980;11.652;2022-12-17T14:31:55;20.25;;;15.40;;
50757;SDS011;36732;47.980;11.652;2022-12-17T14:34:27;20.63;;;15.27;;
50757;SDS011;36732;47.980;11.652;2022-12-17T14:37:04;17.27;;;13.93;;
50757;SDS011;36732;47.980;11.652;2022-12-17T14:39:42;20.75;;;16.33;;
50757;SDS011;36732;47.980;11.652;2022-12-17T14:42:14;18.42;;;14.98;;
50757;SDS011;36732;47.980;11.652;2022-12-17T14:47:35;18.13;;;13.70;;
50757;SDS011;36732;47.980;11.652;2022-12-17T14:52:41;16.77;;;12.00;;
50757;SDS011;36732;47.980;11.652;2022-12-17T15:00:38;20.25;;;15.57;;
50757;SDS011;36732;47.980;11.652;2022-12-17T15:03:08;23.77;;;16.50;;
50757;SDS011;36732;47.980;11.652;2022-12-17T15:05:50;45.90;;;27.10;;
50757;SDS011;36732;47.980;11.652;2022-12-17T15:08:27;41.38;;;23.98;;
50757;SDS011;36732;47.980;11.652;2022-12-17T15:10:57;26.02;;;18.33;;
50757;SDS011;36732;47.980;11.652;2022-12-17T15:13:23;20.08;;;15.05;;
50757;SDS011;36732;47.980;11.652;2022-12-17T15:15:49;17.67;;;13.02;;
50757;SDS011;36732;47.980;11.652;2022-12-17T15:18:14;17.02;;;13.05;;
50757;SDS011;36732;47.980;11.652;2022-12-17T15:20:40;16.83;;;12.20;;
50757;SDS011;36732;47.980;11.652;2022-12-17T15:23:09;14.15;;;11.00;;
50757;SDS011;36732;47.980;11.652;2022-12-17T15:25:47;14.60;;;10.27;;
50757;SDS011;36732;47.980;11.652;2022-12-17T15:28:15;14.25;;;10.82;;
50757;SDS011;36732;47.980;11.652;2022-12-17T15:30:42;13.23;;;9.80;;
50757;SDS011;36732;47.980;11.652;2022-12-17T15:33:09;13.88;;;10.93;;
50757;SDS011;36732;47.980;11.652;2022-12-17T15:35:35;14.15;;;11.10;;
50757;SDS011;36732;47.980;11.652;2022-12-17T15:38:02;13.43;;;10.45;;
50757;SDS011;36732;47.980;11.652;2022-12-17T15:40:29;16.10;;;11.85;;
50757;SDS011;36732;47.980;11.652;2022-12-17T15:42:55;13.45;;;10.32;;
50757;SDS011;36732;47.980;11.652;2022-12-17T15:45:37;26.95;;;18.08;;
50757;SDS011;36732;47.980;11.652;2022-12-17T15:48:03;18.13;;;13.38;;
50757;SDS011;36732;47.980;11.652;2022-12-17T15:50:29;25.60;;;19.48;;
50757;SDS011;36732;47.980;11.652;2022-12-17T15:52:55;16.15;;;11.77;;
50757;SDS011;36732;47.980;11.652;2022-12-17T15:55:21;13.50;;;10.93;;
50757;SDS011;36732;47.980;11.652;2022-12-17T15:57:47;12.77;;;10.32;;
50757;SDS011;36732;47.980;11.652;2022-12-17T16:00:13;16.95;;;12.20;;
50757;SDS011;36732;47.980;11.652;2022-12-17T16:02:39;15.38;;;12.00;;
50757;SDS011;36732;47.980;11.652;2022-12-17T16:05:04;15.45;;;12.43;;
50757;SDS011;36732;47.980;11.652;2022-12-17T16:07:31;18.20;;;14.05;;
50757;SDS011;36732;47.980;11.652;2022-12-17T16:09:56;16.65;;;13.23;;
50757;SDS011;36732;47.980;11.652;2022-12-17T16:12:22;19.40;;;15.35;;
50757;SDS011;36732;47.980;11.652;2022-12-17T16:14:48;20.17;;;14.70;;
50757;SDS011;36732;47.980;11.652;2022-12-17T16:17:14;18.23;;;14.15;;
50757;SDS011;36732;47.980;11.652;2022-12-17T16:19:39;17.13;;;13.65;;
50757;SDS011;36732;47.980;11.652;2022-12-17T16:22:05;22.35;;;15.52;;
50757;SDS011;36732;47.980;11.652;2022-12-17T16:24:31;18.80;;;14.63;;
50757;SDS011;36732;47.980;11.652;2022-12-17T16:26:56;19.60;;;14.65;;
50757;SDS011;36732;47.980;11.652;2022-12-17T16:29:22;19.48;;;14.43;;
50757;SDS011;36732;47.980;11.652;2022-12-17T16:31:48;23.48;;;16.38;;
50757;SDS011;36732;47.980;11.652;2022-12-17T16:34:14;21.17;;;15.82;;
50757;SDS011;36732;47.980;11.652;2022-12-17T16:36:40;22.33;;;15.80;;
50757;SDS011;36732;47.980;11.652;2022-12-17T16:39:06;21.90;;;17.00;;
50757;SDS011;36732;47.980;11.652;2022-12-17T16:41:32;21.58;;;15.98;;
50757;SDS011;36732;47.980;11.652;2022-12-17T16:43:58;22.50;;;16.25;;
50757;SDS011;36732;47.980;11.652;2022-12-17T16:46:29;25.80;;;17.80;;
50757;SDS011;36732;47.980;11.652;2022-12-17T16:49:04;21.58;;;16.58;;
50757;SDS011;36732;47.980;11.652;2022-12-17T16:51:37;26.23;;;18.70;;
50757;SDS011;36732;47.980;11.652;2022-12-17T16:54:07;28.45;;;20.83;;
50757;SDS011;36732;47.980;11.652;2022-12-17T16:56:37;27.23;;;20.10;;
50757;SDS011;36732;47.980;11.652;2022-12-17T16:59:03;26.67;;;19.38;;
50757;SDS011;36732;47.980;11.652;2022-12-17T17:01:31;29.13;;;19.83;;
50757;SDS011;36732;47.980;11.652;2022-12-17T17:03:57;26.73;;;19.15;;
50757;SDS011;36732;47.980;11.652;2022-12-17T17:06:23;27.42;;;19.83;;
50757;SDS011;36732;47.980;11.652;2022-12-17T17:08:49;28.45;;;21.17;;
50757;SDS011;36732;47.980;11.652;2022-12-17T17:11:16;30.33;;;21.25;;
50757;SDS011;36732;47.980;11.652;2022-12-17T17:13:47;31.15;;;22.70;;
50757;SDS011;36732;47.980;11.652;2022-12-17T17:16:16;32.30;;;21.60;;
50757;SDS011;36732;47.980;11.652;2022-12-17T17:18:43;34.13;;;23.15;;
50757;SDS011;36732;47.980;11.652;2022-12-17T17:23:47;31.38;;;22.20;;
50757;SDS011;36732;47.980;11.652;2022-12-17T17:26:17;30.45;;;20.42;;
50757;SDS011;36732;47.980;11.652;2022-12-17T17:28:44;32.65;;;21.17;;
50757;SDS011;36732;47.980;11.652;2022-12-17T17:31:10;32.35;;;21.85;;
50757;SDS011;36732;47.980;11.652;2022-12-17T17:33:39;36.00;;;25.10;;
50757;SDS011;36732;47.980;11.652;2022-12-17T17:36:09;36.10;;;25.73;;
50757;SDS011;36732;47.980;11.652;2022-12-17T17:38:44;44.55;;;30.85;;
50757;SDS011;36732;47.980;11.652;2022-12-17T17:41:13;46.63;;;33.35;;